SLVR

Viru Viru International Airport

Airport
ICAO code
SLVR
IATA Code
VVI
Summary
ICAO Region
CARSAM
ICAO Territory
Location

Santa Cruz de la Sierra, Santa Cruz

Serving
Santa Cruz
Elevation
1224 ft
Coordinates
17° 38' 41" S , 63° 8' 7" W
KCC
Metar
Observation
SLVR 252000Z 33015G26KT 8000 FEW020 33/19 Q1005
Station
Viru-Viru
Date/Time
2022-09-25 20:00:00
Wind direction
330°
Wind speed
15 kts
Lowest cloud amount
few clouds
Temperature
33°C
Dew point
19°C
Humidity
43%
QNH
1005 hPa
Weather condition
n/a

International Airport serving Santa Cruz de la Sierra, Bolivia.

Climatology

Tropical Savanna climate (Köppen climate classification Aw).

Runways

Designator Length Width Surface Rops
16/34 3500 45 CON Yes/Yes

Airport map

Aerial View

SKYbrary Partners:

Safety knowledge contributed by: